Time;durP1;ratioP1;P1;durP2;ratioP2;P2;SDS_P1;SDS_P2;PMS_P1;PMS_P2;Temp;Humidity;BMP_temperature;BMP_pressure;BME280_temperature;BME280_humidity;BME280_pressure;Samples;Min_cycle;Max_cycle;Signal;HPM_P1;HPM_P2
2023/03/06 00:02:17;;;;;;;9.30;4.83;;;6.90;84.60;;;;;;4995835;28;20030;-79
2023/03/06 00:04:42;;;;;;;10.88;5.25;;;6.90;84.60;;;;;;4986260;28;20258;-79
2023/03/06 00:07:08;;;;;;;10.63;4.95;;;6.80;84.50;;;;;;4986418;28;20112;-79
2023/03/06 00:09:34;;;;;;;10.00;4.70;;;6.90;84.60;;;;;;5010047;28;20549;-80
2023/03/06 00:12:00;;;;;;;9.30;4.82;;;6.80;84.80;;;;;;4997889;28;20026;-79
2023/03/06 00:14:26;;;;;;;10.48;5.13;;;6.80;84.60;;;;;;5014616;28;20033;-80
2023/03/06 00:16:55;;;;;;;10.60;4.90;;;6.80;84.60;;;;;;5012531;28;20112;-79
2023/03/06 00:19:22;;;;;;;10.13;5.07;;;6.80;84.70;;;;;;4986144;28;20656;-80
2023/03/06 00:21:47;;;;;;;10.60;5.43;;;6.80;84.60;;;;;;4979141;28;20739;-79
2023/03/06 00:24:13;;;;;;;10.40;5.20;;;6.80;84.60;;;;;;4994372;28;20060;-79
2023/03/06 00:26:40;;;;;;;9.83;5.27;;;6.80;84.60;;;;;;5008753;28;20049;-80
2023/03/06 00:29:06;;;;;;;12.07;5.13;;;6.80;85.00;;;;;;5003372;28;20044;-79
2023/03/06 00:31:34;;;;;;;11.23;5.35;;;6.80;84.70;;;;;;4989793;28;20021;-80
2023/03/06 00:34:01;;;;;;;10.40;5.37;;;6.80;84.80;;;;;;4991773;28;20060;-79
2023/03/06 00:36:27;;;;;;;10.65;4.82;;;6.80;84.80;;;;;;4965487;28;20033;-81
2023/03/06 00:38:53;;;;;;;11.25;5.72;;;6.80;84.80;;;;;;5006820;28;20107;-79
2023/03/06 00:41:19;;;;;;;10.38;4.97;;;6.70;84.80;;;;;;5013618;28;20600;-79
2023/03/06 00:43:45;;;;;;;10.00;5.30;;;6.70;84.80;;;;;;4997082;28;20221;-79
2023/03/06 00:46:11;;;;;;;9.10;4.53;;;6.70;84.80;;;;;;4989703;28;20079;-79
2023/03/06 00:48:37;;;;;;;10.75;5.55;;;6.70;84.80;;;;;;4976598;28;20021;-80
2023/03/06 00:51:03;;;;;;;10.20;5.47;;;6.70;84.80;;;;;;4985157;28;20018;-80
2023/03/06 00:53:28;;;;;;;11.23;5.57;;;6.70;84.80;;;;;;4984746;28;20044;-80
2023/03/06 00:55:54;;;;;;;8.77;4.70;;;6.70;84.80;;;;;;5013489;28;20029;-79
2023/03/06 00:58:20;;;;;;;9.90;4.93;;;6.70;84.80;;;;;;5000282;28;20025;-80
2023/03/06 01:00:46;;;;;;;9.23;4.97;;;6.70;84.80;;;;;;4991585;28;20621;-79
2023/03/06 01:03:11;;;;;;;10.10;5.33;;;6.70;84.90;;;;;;5015374;28;20029;-78
2023/03/06 01:05:37;;;;;;;12.18;5.57;;;6.70;84.90;;;;;;5012972;28;20147;-80
2023/03/06 01:08:04;;;;;;;10.47;5.30;;;6.70;85.00;;;;;;4973218;28;20398;-79
2023/03/06 01:10:30;;;;;;;11.52;5.15;;;6.70;85.00;;;;;;5003788;28;20106;-79
2023/03/06 01:12:56;;;;;;;10.82;5.35;;;6.70;85.00;;;;;;5012825;28;20056;-79
2023/03/06 01:15:22;;;;;;;10.93;4.85;;;6.70;85.00;;;;;;5008272;28;20018;-80
2023/03/06 01:17:52;;;;;;;9.60;4.88;;;6.70;85.00;;;;;;4996836;28;20262;-79
2023/03/06 01:20:18;;;;;;;10.10;5.20;;;6.70;85.10;;;;;;5015631;28;21036;-79
2023/03/06 01:22:43;;;;;;;11.02;5.65;;;6.70;85.10;;;;;;4971068;28;20223;-79
2023/03/06 01:25:10;;;;;;;12.70;5.73;;;6.70;85.10;;;;;;4989846;28;20083;-79
2023/03/06 01:27:36;;;;;;;13.48;5.68;;;6.70;85.10;;;;;;4988256;28;20664;-80
2023/03/06 01:30:02;;;;;;;10.63;5.07;;;6.70;85.10;;;;;;4972374;28;20060;-80
2023/03/06 01:32:29;;;;;;;11.20;5.30;;;6.70;85.10;;;;;;4996934;28;20526;-80
2023/03/06 01:34:55;;;;;;;10.17;5.00;;;6.70;85.10;;;;;;4994773;28;20054;-79
2023/03/06 01:37:21;;;;;;;10.23;5.07;;;6.60;85.10;;;;;;4969942;28;20587;-80
2023/03/06 01:39:46;;;;;;;9.55;5.07;;;6.60;85.10;;;;;;4962638;28;20038;-78
2023/03/06 01:42:12;;;;;;;11.37;5.67;;;6.70;85.10;;;;;;4996725;28;20042;-79
2023/03/06 01:45:00;;;;;;;11.60;5.22;;;6.70;85.10;;;;;;4984204;28;20145;-80
2023/03/06 01:47:26;;;;;;;11.07;5.50;;;6.70;85.60;;;;;;4992103;28;20033;-80
2023/03/06 01:49:52;;;;;;;13.00;5.68;;;6.60;85.00;;;;;;4994025;28;20243;-79
2023/03/06 01:52:22;;;;;;;12.10;5.20;;;6.60;85.10;;;;;;4995904;28;20064;-80
2023/03/06 01:54:59;;;;;;;11.70;6.18;;;6.60;85.20;;;;;;4970814;28;20293;-80
2023/03/06 01:57:33;;;;;;;10.60;5.10;;;6.60;85.30;;;;;;4992976;28;20022;-80
2023/03/06 02:00:09;;;;;;;12.15;5.80;;;6.60;85.40;;;;;;4996611;28;20464;-79
2023/03/06 02:02:36;;;;;;;10.15;5.28;;;6.60;85.20;;;;;;4979544;28;20036;-80
2023/03/06 02:05:04;;;;;;;10.98;5.80;;;6.60;85.20;;;;;;4994636;28;20045;-79
2023/03/06 02:07:30;;;;;;;11.00;5.57;;;6.50;85.20;;;;;;5006430;28;20108;-79
2023/03/06 02:09:56;;;;;;;13.10;5.47;;;6.50;85.20;;;;;;4970739;28;20602;-80
2023/03/06 02:12:22;;;;;;;13.35;6.00;;;6.50;85.30;;;;;;4992830;28;20210;-80
2023/03/06 02:14:48;;;;;;;10.95;5.68;;;6.60;85.40;;;;;;4992623;28;20025;-78
2023/03/06 02:17:17;;;;;;;12.38;5.80;;;6.50;85.20;;;;;;4986084;28;20034;-79
2023/03/06 02:20:01;;;;;;;10.87;5.40;;;6.50;85.30;;;;;;4985745;28;20049;-78
2023/03/06 02:22:36;;;;;;;11.95;5.45;;;6.50;85.40;;;;;;4990263;28;20038;-80
2023/03/06 02:25:21;;;;;;;11.35;5.78;;;6.50;85.40;;;;;;4992913;28;20018;-79
2023/03/06 02:27:47;;;;;;;12.75;5.38;;;6.50;85.60;;;;;;4963920;28;20130;-78
2023/03/06 02:30:15;;;;;;;12.30;6.05;;;6.50;85.20;;;;;;4995860;28;20396;-78
2023/03/06 02:32:41;;;;;;;12.20;5.77;;;6.50;85.30;;;;;;4996624;28;20022;-79
2023/03/06 02:35:19;;;;;;;13.05;5.70;;;6.50;85.20;;;;;;4995637;28;20053;-79
2023/03/06 02:37:46;;;;;;;13.02;5.88;;;6.40;85.40;;;;;;4989596;28;20418;-79
2023/03/06 02:40:13;;;;;;;10.47;5.27;;;6.40;85.20;;;;;;4996361;28;20537;-78
2023/03/06 02:42:48;;;;;;;12.77;6.00;;;6.40;85.20;;;;;;4966692;28;20423;-79
2023/03/06 02:45:20;;;;;;;11.07;5.63;;;6.40;85.40;;;;;;5009875;28;20033;-79
2023/03/06 02:47:46;;;;;;;11.90;5.55;;;6.40;85.30;;;;;;4995345;28;20521;-79
2023/03/06 02:50:12;;;;;;;10.57;5.30;;;6.40;85.30;;;;;;4967301;28;20026;-79
2023/03/06 02:52:37;;;;;;;12.90;5.82;;;6.40;85.30;;;;;;4986332;28;20044;-80
2023/03/06 02:55:04;;;;;;;11.38;5.70;;;6.40;85.40;;;;;;4999294;28;20101;-79
2023/03/06 02:57:29;;;;;;;10.67;5.23;;;6.40;85.40;;;;;;4960014;28;20021;-80
2023/03/06 02:59:55;;;;;;;11.02;5.75;;;6.40;85.40;;;;;;4995494;28;20490;-79
2023/03/06 03:02:21;;;;;;;11.67;5.43;;;6.40;85.30;;;;;;4990085;28;20060;-80
2023/03/06 03:04:47;;;;;;;14.07;6.30;;;6.40;85.40;;;;;;4980209;28;20293;-79
2023/03/06 03:07:12;;;;;;;12.20;5.43;;;6.40;85.30;;;;;;4993396;28;20030;-78
2023/03/06 03:09:38;;;;;;;12.30;5.90;;;6.40;85.30;;;;;;4974590;28;20057;-80
2023/03/06 03:12:06;;;;;;;12.80;5.57;;;6.40;85.30;;;;;;4987305;28;20062;-79
2023/03/06 03:14:32;;;;;;;11.93;5.75;;;6.40;85.30;;;;;;4967236;28;20083;-80
2023/03/06 03:16:58;;;;;;;12.05;5.95;;;6.40;85.30;;;;;;4993367;28;20030;-79
2023/03/06 03:19:23;;;;;;;14.43;6.65;;;6.40;85.40;;;;;;4990283;28;20022;-79
2023/03/06 03:21:49;;;;;;;12.90;6.10;;;6.30;85.40;;;;;;4965365;28;20729;-80
2023/03/06 03:24:15;;;;;;;12.75;5.78;;;6.40;85.50;;;;;;4990349;28;20026;-79
2023/03/06 03:26:41;;;;;;;12.80;6.13;;;6.30;85.40;;;;;;4986913;28;20463;-80
2023/03/06 03:29:08;;;;;;;12.77;5.70;;;6.30;85.40;;;;;;4982869;28;20128;-80
2023/03/06 03:31:34;;;;;;;12.60;6.18;;;6.30;85.60;;;;;;4974232;28;20026;-80
2023/03/06 03:34:00;;;;;;;13.68;6.55;;;6.30;85.50;;;;;;4992085;28;20718;-80
2023/03/06 03:36:26;;;;;;;13.18;5.97;;;6.30;85.50;;;;;;4995979;28;20030;-80
2023/03/06 03:38:52;;;;;;;13.47;6.10;;;6.30;85.50;;;;;;4974572;28;20216;-78
2023/03/06 03:41:18;;;;;;;13.35;6.20;;;6.30;85.40;;;;;;4990528;28;20014;-78
2023/03/06 03:43:43;;;;;;;11.93;5.80;;;6.20;85.30;;;;;;4974804;28;20219;-79
2023/03/06 03:46:10;;;;;;;12.45;5.80;;;6.20;85.40;;;;;;4994875;28;20061;-78
2023/03/06 03:48:36;;;;;;;11.52;5.68;;;6.20;85.40;;;;;;5004764;28;20026;-80
2023/03/06 03:51:09;;;;;;;14.23;6.05;;;6.20;85.40;;;;;;4984559;28;20045;-79
2023/03/06 03:53:35;;;;;;;11.47;5.80;;;6.20;85.60;;;;;;5007903;28;20419;-80
2023/03/06 03:56:02;;;;;;;11.75;5.75;;;6.20;85.50;;;;;;4995012;28;20026;-79
2023/03/06 03:58:28;;;;;;;14.18;6.38;;;6.20;85.50;;;;;;4986383;28;20026;-80
2023/03/06 04:00:54;;;;;;;12.13;5.90;;;6.20;85.50;;;;;;4980758;28;20038;-79
2023/03/06 04:03:20;;;;;;;13.60;6.27;;;6.20;85.60;;;;;;4992942;28;20292;-79
2023/03/06 04:05:46;;;;;;;13.40;6.00;;;6.20;85.60;;;;;;4979871;28;20121;-79
2023/03/06 04:08:11;;;;;;;11.23;5.75;;;6.20;85.70;;;;;;4976389;28;20025;-79
2023/03/06 04:10:38;;;;;;;11.47;5.50;;;6.20;85.70;;;;;;4973661;28;20106;-80
2023/03/06 04:13:04;;;;;;;11.93;5.80;;;6.20;85.70;;;;;;4968224;28;20045;-78
2023/03/06 04:15:31;;;;;;;13.23;5.85;;;6.10;85.60;;;;;;4966403;28;20027;-80
2023/03/06 04:17:57;;;;;;;12.57;5.60;;;6.20;85.70;;;;;;4986311;28;20156;-78
2023/03/06 04:20:23;;;;;;;12.33;6.00;;;6.20;85.70;;;;;;5008169;28;20037;-79
2023/03/06 04:22:49;;;;;;;13.23;6.20;;;6.20;85.70;;;;;;4996591;28;20076;-79
2023/03/06 04:25:14;;;;;;;12.27;5.35;;;6.20;85.60;;;;;;4993088;28;20045;-79
2023/03/06 04:27:40;;;;;;;14.07;6.30;;;6.20;85.50;;;;;;5000492;28;20132;-79
2023/03/06 04:30:07;;;;;;;10.82;5.60;;;6.10;85.40;;;;;;4994424;28;20140;-79
2023/03/06 04:32:33;;;;;;;13.80;6.53;;;6.10;85.40;;;;;;4983251;28;20025;-80
2023/03/06 04:34:58;;;;;;;15.33;6.77;;;6.10;85.20;;;;;;4998257;28;20087;-79
2023/03/06 04:37:25;;;;;;;12.05;5.90;;;6.10;85.20;;;;;;4991586;28;20025;-80
2023/03/06 04:39:51;;;;;;;14.53;5.80;;;6.10;85.30;;;;;;5006253;28;20195;-79
2023/03/06 04:42:17;;;;;;;13.27;6.13;;;6.00;85.20;;;;;;5004804;28;20033;-79
2023/03/06 04:44:43;;;;;;;15.15;6.65;;;6.00;85.40;;;;;;4973367;28;20399;-79
2023/03/06 04:47:09;;;;;;;14.07;5.80;;;5.90;85.50;;;;;;4955565;28;20029;-79
2023/03/06 04:49:36;;;;;;;13.82;6.40;;;5.90;85.50;;;;;;5015313;28;20079;-80
2023/03/06 04:52:02;;;;;;;12.93;6.13;;;5.90;85.60;;;;;;5032530;28;20021;-79
2023/03/06 04:54:28;;;;;;;14.65;6.22;;;5.90;85.60;;;;;;5007111;28;20418;-80
2023/03/06 04:56:54;;;;;;;13.43;5.72;;;5.90;85.80;;;;;;4998367;28;20117;-78
2023/03/06 04:59:20;;;;;;;13.90;6.63;;;5.90;85.90;;;;;;5011905;28;20117;-80
2023/03/06 05:01:46;;;;;;;13.43;6.40;;;5.90;85.90;;;;;;4948257;28;20076;-79
2023/03/06 05:04:11;;;;;;;15.38;6.57;;;5.90;86.80;;;;;;5015992;28;20029;-79
2023/03/06 05:06:37;;;;;;;15.00;6.37;;;5.90;85.90;;;;;;5005063;28;20064;-80
2023/03/06 05:09:03;;;;;;;13.23;6.00;;;5.90;85.90;;;;;;4987479;28;20040;-79
2023/03/06 05:11:29;;;;;;;15.07;6.78;;;5.90;85.80;;;;;;4998510;28;20023;-80
2023/03/06 05:13:55;;;;;;;12.63;5.70;;;5.90;85.70;;;;;;4973297;28;20135;-79
2023/03/06 05:16:21;;;;;;;13.35;6.03;;;5.90;85.60;;;;;;4996338;28;20030;-80
2023/03/06 05:18:46;;;;;;;13.03;5.40;;;5.90;85.60;;;;;;4978668;28;20131;-79
2023/03/06 05:21:12;;;;;;;13.77;5.90;;;5.80;85.50;;;;;;5031217;28;20036;-78
2023/03/06 05:23:38;;;;;;;13.30;6.70;;;5.80;85.50;;;;;;5003178;28;20029;-80
2023/03/06 05:26:07;;;;;;;14.97;6.20;;;5.80;85.50;;;;;;4996781;28;20041;-79
2023/03/06 05:28:33;;;;;;;13.57;6.30;;;5.80;85.60;;;;;;4996430;28;20033;-80
2023/03/06 05:30:58;;;;;;;11.98;5.55;;;5.80;86.30;;;;;;4990688;28;20030;-79
2023/03/06 05:33:25;;;;;;;13.20;6.40;;;5.70;85.60;;;;;;4971106;28;20018;-80
2023/03/06 05:35:51;;;;;;;13.30;6.45;;;5.70;85.80;;;;;;4992645;28;20035;-79
2023/03/06 05:38:17;;;;;;;13.45;5.95;;;5.70;85.90;;;;;;4977466;28;20049;-78
2023/03/06 05:40:44;;;;;;;14.07;6.57;;;5.70;85.90;;;;;;4977192;28;20314;-80
2023/03/06 05:43:10;;;;;;;14.73;7.07;;;5.70;86.00;;;;;;4998165;28;20530;-79
2023/03/06 05:45:37;;;;;;;15.15;6.75;;;5.70;85.80;;;;;;4990960;28;20082;-80
2023/03/06 05:48:03;;;;;;;13.95;6.25;;;5.70;85.60;;;;;;4988681;28;20108;-79
2023/03/06 05:50:29;;;;;;;12.95;6.22;;;5.70;85.40;;;;;;5013551;28;20029;-79
2023/03/06 05:52:55;;;;;;;13.03;5.97;;;5.60;85.20;;;;;;5009129;28;20215;-78
2023/03/06 05:55:22;;;;;;;14.70;6.50;;;5.60;85.00;;;;;;5002000;28;20029;-80
2023/03/06 05:57:50;;;;;;;13.13;5.97;;;5.50;85.00;;;;;;5011273;28;20052;-78
2023/03/06 06:00:17;;;;;;;13.65;5.85;;;5.40;84.80;;;;;;5014390;28;20033;-79
2023/03/06 06:02:43;;;;;;;15.33;6.50;;;5.40;84.80;;;;;;4997498;28;20234;-78
2023/03/06 06:05:09;;;;;;;16.23;6.88;;;5.30;84.80;;;;;;4989614;28;20402;-80
2023/03/06 06:07:35;;;;;;;15.60;7.10;;;5.20;84.90;;;;;;4977027;28;20526;-78
2023/03/06 06:10:02;;;;;;;15.13;6.77;;;5.20;85.00;;;;;;4972783;28;20435;-79
2023/03/06 06:12:28;;;;;;;16.00;7.18;;;5.10;85.00;;;;;;4998242;28;20048;-79
2023/03/06 06:14:54;;;;;;;15.52;7.05;;;5.10;85.20;;;;;;4991035;28;20669;-78
2023/03/06 06:17:19;;;;;;;15.18;6.57;;;5.00;85.20;;;;;;4987778;28;20026;-79
2023/03/06 06:19:45;;;;;;;16.70;6.53;;;5.00;85.20;;;;;;4983364;28;20026;-80
2023/03/06 06:22:11;;;;;;;14.73;6.78;;;5.00;85.30;;;;;;5028736;28;20168;-79
2023/03/06 06:24:37;;;;;;;15.65;6.95;;;4.90;85.20;;;;;;4994566;28;20060;-80
2023/03/06 06:27:04;;;;;;;15.37;6.27;;;4.90;85.30;;;;;;5004887;28;20264;-79
2023/03/06 06:29:31;;;;;;;13.48;6.15;;;4.90;85.30;;;;;;4997251;28;20572;-79
2023/03/06 06:31:57;;;;;;;14.63;6.35;;;4.80;85.30;;;;;;5005899;28;20522;-80
2023/03/06 06:34:23;;;;;;;14.00;6.35;;;4.80;85.40;;;;;;4947416;28;20072;-79
2023/03/06 06:36:49;;;;;;;13.90;6.18;;;4.80;85.50;;;;;;4998270;28;20132;-79
2023/03/06 06:39:17;;;;;;;13.83;6.23;;;4.70;85.50;;;;;;4976692;28;20087;-78
2023/03/06 06:41:43;;;;;;;15.10;6.45;;;4.80;85.70;;;;;;4991533;28;20109;-81
2023/03/06 06:44:13;;;;;;;14.55;6.32;;;4.70;85.60;;;;;;4977366;28;20026;-78
2023/03/06 06:46:40;;;;;;;16.23;6.22;;;4.70;85.70;;;;;;4994565;28;20092;-80
2023/03/06 06:49:05;;;;;;;16.92;6.25;;;4.70;85.80;;;;;;5009089;28;20017;-80
2023/03/06 06:51:32;;;;;;;12.97;5.87;;;4.70;85.90;;;;;;5005257;28;20030;-79
2023/03/06 06:53:59;;;;;;;15.90;6.55;;;4.70;86.20;;;;;;4979450;28;20430;-78
2023/03/06 06:56:25;;;;;;;15.10;6.05;;;4.80;86.30;;;;;;4989854;28;20072;-81
2023/03/06 06:58:58;;;;;;;14.40;6.43;;;4.80;86.30;;;;;;4993852;28;20317;-82
2023/03/06 07:01:24;;;;;;;14.90;6.40;;;4.80;86.30;;;;;;5013596;28;20036;-79
2023/03/06 07:03:50;;;;;;;14.15;6.30;;;4.80;86.20;;;;;;5005620;28;20085;-78
2023/03/06 07:06:16;;;;;;;13.30;6.03;;;4.80;86.30;;;;;;4986759;28;20040;-78
2023/03/06 07:08:41;;;;;;;14.07;6.17;;;4.80;86.30;;;;;;4983113;28;20512;-80
2023/03/06 07:11:16;;;;;;;15.35;6.57;;;4.80;86.50;;;;;;5002768;28;20021;-78
2023/03/06 07:13:42;;;;;;;14.60;6.23;;;4.90;86.70;;;;;;4973928;28;20542;-80
2023/03/06 07:16:08;;;;;;;15.88;7.22;;;4.90;86.60;;;;;;4998963;28;20063;-78
2023/03/06 07:18:34;;;;;;;16.15;7.00;;;4.90;86.70;;;;;;4990861;28;20402;-80
2023/03/06 07:21:00;;;;;;;14.93;6.60;;;5.00;87.20;;;;;;4971991;28;20461;-80
2023/03/06 07:23:26;;;;;;;17.13;7.13;;;5.10;87.90;;;;;;4994703;28;20477;-78
2023/03/06 07:25:53;;;;;;;14.18;6.63;;;5.20;88.30;;;;;;4976934;28;20033;-78
2023/03/06 07:28:20;;;;;;;14.57;6.28;;;5.30;88.30;;;;;;5001757;28;20037;-79
2023/03/06 07:30:46;;;;;;;15.60;6.53;;;5.40;88.10;;;;;;5008272;28;20076;-80
2023/03/06 07:33:13;;;;;;;16.00;7.05;;;5.50;88.00;;;;;;4995897;28;20026;-78
2023/03/06 07:35:42;;;;;;;14.43;6.68;;;5.60;87.90;;;;;;4993992;28;20774;-81
2023/03/06 07:38:08;;;;;;;14.00;6.25;;;5.60;87.80;;;;;;4996228;28;20624;-80
2023/03/06 07:40:34;;;;;;;15.40;6.63;;;5.70;87.80;;;;;;4981690;28;20278;-79
2023/03/06 07:43:00;;;;;;;15.50;6.67;;;5.80;87.80;;;;;;4966199;28;20026;-80
2023/03/06 07:45:26;;;;;;;13.80;6.40;;;5.80;87.70;;;;;;4993146;28;20036;-79
2023/03/06 07:47:52;;;;;;;13.20;6.13;;;5.90;87.90;;;;;;5015507;28;20521;-79
2023/03/06 07:50:19;;;;;;;15.53;6.70;;;5.90;87.80;;;;;;4992923;28;20229;-80
2023/03/06 07:52:45;;;;;;;15.40;6.60;;;6.00;87.80;;;;;;4989539;28;20030;-79
2023/03/06 07:55:11;;;;;;;15.18;7.03;;;6.00;87.70;;;;;;5002744;28;20320;-80
2023/03/06 07:57:38;;;;;;;15.00;6.75;;;6.00;87.70;;;;;;4979931;28;20382;-78
2023/03/06 08:00:05;;;;;;;17.08;7.72;;;6.10;87.80;;;;;;5008267;28;20029;-80
2023/03/06 08:02:30;;;;;;;15.93;6.90;;;6.10;88.00;;;;;;4988618;28;20267;-79
2023/03/06 08:04:56;;;;;;;14.30;6.57;;;6.20;88.20;;;;;;5012087;28;20033;-79
2023/03/06 08:07:22;;;;;;;22.83;7.85;;;6.30;88.50;;;;;;4967138;28;20188;-80
2023/03/06 08:09:49;;;;;;;14.63;6.80;;;6.40;89.10;;;;;;4987873;28;20250;-79
2023/03/06 08:12:15;;;;;;;16.00;7.10;;;6.50;89.40;;;;;;4988997;28;20430;-80
2023/03/06 08:14:41;;;;;;;16.77;6.85;;;6.70;89.80;;;;;;5018770;28;20033;-80
2023/03/06 08:17:07;;;;;;;14.90;7.32;;;6.90;89.80;;;;;;4999644;28;20458;-80
2023/03/06 08:19:32;;;;;;;15.40;7.37;;;7.00;89.50;;;;;;4999748;28;20466;-79
2023/03/06 08:21:58;;;;;;;14.60;6.93;;;7.20;89.40;;;;;;4996053;28;20702;-80
2023/03/06 08:24:24;;;;;;;13.47;6.97;;;7.30;89.00;;;;;;4972583;28;20038;-78
2023/03/06 08:26:49;;;;;;;14.25;6.95;;;7.40;89.00;;;;;;4982933;28;20066;-78
2023/03/06 08:29:15;;;;;;;13.13;6.17;;;7.50;89.30;;;;;;4982978;28;20061;-79
2023/03/06 08:31:43;;;;;;;13.55;6.05;;;7.60;89.50;;;;;;4999528;28;20079;-79
2023/03/06 08:34:14;;;;;;;13.68;6.82;;;7.80;89.60;;;;;;4996431;28;20466;-80
2023/03/06 08:36:40;;;;;;;14.23;6.80;;;7.90;89.30;;;;;;4993946;28;20802;-79
2023/03/06 08:39:07;;;;;;;14.30;6.30;;;8.00;89.10;;;;;;4968931;28;20017;-80
2023/03/06 08:41:33;;;;;;;13.10;6.40;;;8.10;89.00;;;;;;4980241;28;20815;-80
2023/03/06 08:43:59;;;;;;;14.70;7.00;;;8.20;88.90;;;;;;4989935;28;20116;-80
2023/03/06 08:46:26;;;;;;;11.97;6.23;;;8.20;88.60;;;;;;4993739;28;20420;-79
2023/03/06 08:48:52;;;;;;;12.80;6.43;;;8.30;88.70;;;;;;4981813;28;20030;-78
2023/03/06 08:51:19;;;;;;;13.48;6.45;;;8.40;88.80;;;;;;4993218;28;20041;-80
2023/03/06 08:53:45;;;;;;;13.57;6.82;;;8.50;88.70;;;;;;4998248;28;20419;-79
2023/03/06 08:56:20;;;;;;;12.25;6.22;;;8.50;88.30;;;;;;4965007;28;20018;-80
2023/03/06 08:58:46;;;;;;;13.07;6.07;;;8.60;88.70;;;;;;4973197;28;20036;-79
2023/03/06 09:01:14;;;;;;;12.85;6.75;;;8.60;87.90;;;;;;4993309;28;20017;-80
2023/03/06 09:03:40;;;;;;;14.43;6.55;;;8.60;87.70;;;;;;4998177;28;20077;-78
2023/03/06 09:06:06;;;;;;;14.88;7.18;;;8.60;87.60;;;;;;4995047;28;20479;-80
2023/03/06 09:08:31;;;;;;;13.17;6.67;;;8.60;87.20;;;;;;4996514;28;20499;-79
2023/03/06 09:10:57;;;;;;;14.02;7.53;;;8.60;87.10;;;;;;4965529;28;20558;-80
2023/03/06 09:13:23;;;;;;;13.52;6.53;;;8.60;87.00;;;;;;4993698;28;20794;-78
2023/03/06 09:15:49;;;;;;;13.50;6.33;;;8.60;87.10;;;;;;4979653;28;20479;-79
2023/03/06 09:18:15;;;;;;;12.02;6.07;;;8.50;87.00;;;;;;4977947;28;20025;-80
2023/03/06 09:20:40;;;;;;;11.57;5.80;;;8.60;87.10;;;;;;4991060;28;20041;-80
2023/03/06 09:23:07;;;;;;;13.15;5.95;;;8.50;86.90;;;;;;4994277;28;20667;-80
2023/03/06 09:25:33;;;;;;;10.67;5.80;;;8.50;86.90;;;;;;5000205;28;20053;-78
2023/03/06 09:27:59;;;;;;;10.85;5.20;;;8.50;87.10;;;;;;4997817;28;20109;-80
2023/03/06 09:30:24;;;;;;;11.90;5.82;;;8.50;87.00;;;;;;4968399;28;20096;-78
2023/03/06 09:32:50;;;;;;;10.53;4.83;;;8.50;87.00;;;;;;5017971;28;20421;-81
2023/03/06 09:35:17;;;;;;;11.03;5.40;;;8.50;86.90;;;;;;4994701;28;20022;-80
2023/03/06 09:37:43;;;;;;;12.27;5.55;;;8.50;86.90;;;;;;5002337;28;20644;-79
2023/03/06 09:40:32;;;;;;;10.75;5.50;;;8.50;86.80;;;;;;4956496;28;20036;-81
2023/03/06 09:42:58;;;;;;;11.55;5.50;;;8.60;87.30;;;;;;4988860;28;20092;-80
2023/03/06 09:45:23;;;;;;;9.97;5.20;;;8.50;86.60;;;;;;4974846;28;20021;-78
2023/03/06 09:48:03;;;;;;;10.32;5.32;;;8.60;86.70;;;;;;5017879;28;20043;-78
2023/03/06 09:50:43;;;;;;;12.07;5.78;;;8.50;86.80;;;;;;5012976;28;20611;-80
2023/03/06 09:53:30;;;;;;;9.93;5.18;;;8.50;86.70;;;;;;5013576;28;20100;-80
2023/03/06 09:56:20;;;;;;;10.13;5.23;;;8.60;86.60;;;;;;5000845;28;20099;-79
2023/03/06 09:58:52;;;;;;;11.02;5.50;;;8.50;86.60;;;;;;4996291;28;20037;-78
2023/03/06 10:01:28;;;;;;;12.60;6.07;;;8.50;86.60;;;;;;4979611;28;20045;-79
2023/03/06 10:04:25;;;;;;;11.63;5.35;;;8.50;86.40;;;;;;5016159;28;20033;-79
2023/03/06 10:06:58;;;;;;;11.70;5.53;;;8.60;86.50;;;;;;5009678;28;20050;-79
2023/03/06 10:09:49;;;;;;;12.57;6.13;;;8.50;86.40;;;;;;4995176;28;20052;-79
2023/03/06 10:12:24;;;;;;;10.85;5.38;;;8.50;86.40;;;;;;4985949;28;20029;-80
2023/03/06 10:15:15;;;;;;;8.98;4.70;;;8.50;86.60;;;;;;4995544;28;20569;-79
2023/03/06 10:17:41;;;;;;;11.25;5.60;;;8.60;86.80;;;;;;5010165;28;20290;-80
2023/03/06 10:20:25;;;;;;;10.52;5.20;;;8.60;86.80;;;;;;4996830;28;20438;-80
2023/03/06 10:22:55;;;;;;;10.70;5.70;;;8.70;86.60;;;;;;5013411;28;20425;-80
2023/03/06 10:25:42;;;;;;;11.02;5.80;;;8.70;86.80;;;;;;5012564;28;20726;-78
2023/03/06 10:28:13;;;;;;;12.20;6.00;;;8.70;86.80;;;;;;4985910;28;20246;-80
2023/03/06 10:31:00;;;;;;;13.25;6.50;;;8.80;87.60;;;;;;4980227;28;20246;-79
2023/03/06 10:33:54;;;;;;;12.48;6.35;;;8.80;86.70;;;;;;5011665;28;20254;-78
2023/03/06 10:36:26;;;;;;;11.83;5.43;;;8.90;86.70;;;;;;4994170;28;20326;-78
2023/03/06 10:38:55;;;;;;;12.57;6.03;;;8.90;87.00;;;;;;5014376;28;20114;-79
2023/03/06 10:41:30;;;;;;;12.40;6.00;;;9.00;87.20;;;;;;5009520;28;20346;-80
2023/03/06 10:43:58;;;;;;;11.00;5.75;;;9.10;87.20;;;;;;4966512;28;20033;-79
2023/03/06 10:46:30;;;;;;;13.73;7.13;;;9.20;87.50;;;;;;5013225;28;20094;-80
2023/03/06 10:48:58;;;;;;;12.87;6.50;;;9.30;87.00;;;;;;5014943;28;20033;-78
2023/03/06 10:51:26;;;;;;;11.65;5.78;;;9.40;87.10;;;;;;4980229;28;20054;-79
2023/03/06 10:54:16;;;;;;;12.90;6.70;;;9.40;87.40;;;;;;5002647;28;20022;-79
2023/03/06 10:56:44;;;;;;;9.05;5.35;;;9.60;86.90;;;;;;5032420;28;20029;-79
2023/03/06 10:59:16;;;;;;;11.57;6.50;;;9.70;87.40;;;;;;4964436;28;20021;-80
2023/03/06 11:01:50;;;;;;;9.30;5.40;;;9.80;87.60;;;;;;4984392;28;20041;-79
2023/03/06 11:04:27;;;;;;;10.63;5.38;;;9.90;86.90;;;;;;5012083;28;20021;-79
2023/03/06 11:07:17;;;;;;;8.95;5.18;;;10.10;86.80;;;;;;4997947;28;20044;-80
2023/03/06 11:09:55;;;;;;;9.93;5.20;;;10.20;85.70;;;;;;5013493;28;20744;-79
2023/03/06 11:12:24;;;;;;;8.48;4.68;;;10.20;85.50;;;;;;4948255;28;20137;-80
2023/03/06 11:15:08;;;;;;;9.10;5.03;;;10.40;86.50;;;;;;5016846;28;20105;-79
2023/03/06 11:17:52;;;;;;;10.73;5.70;;;10.50;83.80;;;;;;4976921;28;20243;-79
2023/03/06 11:20:32;;;;;;;9.20;4.90;;;10.50;84.00;;;;;;5013939;28;20272;-78
2023/03/06 11:23:03;;;;;;;8.18;4.50;;;10.60;84.70;;;;;;5014770;28;20107;-80
2023/03/06 11:25:33;;;;;;;7.78;4.28;;;10.60;85.70;;;;;;5012003;28;20107;-78
2023/03/06 11:28:22;;;;;;;7.40;4.13;;;10.60;85.30;;;;;;5004452;28;20111;-81
2023/03/06 11:30:57;;;;;;;7.50;3.60;;;10.70;85.50;;;;;;5014766;28;20399;-79
2023/03/06 11:33:45;;;;;;;8.63;4.72;;;10.80;85.40;;;;;;4997485;28;20846;-79
2023/03/06 11:36:43;;;;;;;7.60;4.10;;;10.90;84.10;;;;;;4978803;28;20089;-80
2023/03/06 11:39:41;;;;;;;8.10;4.30;;;11.10;84.30;;;;;;4988808;28;20147;-80
2023/03/06 11:42:26;;;;;;;8.50;4.47;;;11.20;84.10;;;;;;4997619;28;20072;-79
2023/03/06 11:44:55;;;;;;;9.52;5.22;;;11.30;83.10;;;;;;4969351;28;20033;-82
2023/03/06 11:47:35;;;;;;;8.13;4.60;;;11.40;84.90;;;;;;4978724;28;20175;-78
2023/03/06 11:50:44;;;;;;;7.13;4.07;;;11.50;83.60;;;;;;5014288;28;20021;-80
2023/03/06 11:53:21;;;;;;;7.63;4.22;;;11.60;82.70;;;;;;4991550;28;20038;-80
2023/03/06 11:56:21;;;;;;;6.67;4.00;;;11.70;84.00;;;;;;5014548;28;20060;-79
2023/03/06 11:59:24;;;;;;;6.88;3.72;;;11.70;81.80;;;;;;5015744;28;20037;-79
2023/03/06 12:02:28;;;;;;;7.38;4.10;;;11.70;81.30;;;;;;4990194;28;20062;-79
2023/03/06 12:05:20;;;;;;;11.18;4.50;;;11.60;81.10;;;;;;4998425;28;20061;-78
2023/03/06 12:07:57;;;;;;;7.72;4.00;;;11.50;81.40;;;;;;4993097;28;20026;-78
2023/03/06 12:10:31;;;;;;;7.20;3.87;;;11.50;81.50;;;;;;4993822;28;20243;-78
2023/03/06 12:13:38;;;;;;;7.18;3.88;;;11.50;82.80;;;;;;4978870;28;20315;-80
2023/03/06 12:16:23;;;;;;;7.38;3.80;;;11.60;81.40;;;;;;4971203;28;20352;-80
2023/03/06 12:19:10;;;;;;;7.20;3.75;;;11.70;80.80;;;;;;4999242;28;20118;-80
2023/03/06 12:22:00;;;;;;;7.20;3.90;;;11.70;80.90;;;;;;5014863;28;20025;-79
2023/03/06 12:24:51;;;;;;;7.40;4.10;;;11.70;81.50;;;;;;4994908;28;20383;-78
2023/03/06 12:27:51;;;;;;;7.90;4.20;;;11.70;79.30;;;;;;4973494;28;20598;-79
2023/03/06 12:30:28;;;;;;;6.47;3.65;;;11.70;79.30;;;;;;5009162;28;20823;-78
2023/03/06 12:33:02;;;;;;;7.00;4.03;;;11.70;81.60;;;;;;4988161;28;20025;-81
2023/03/06 12:35:46;;;;;;;8.57;4.10;;;11.70;80.90;;;;;;4997184;28;20426;-78
2023/03/06 12:38:21;;;;;;;7.83;4.13;;;11.80;80.80;;;;;;4992131;28;20053;-80
2023/03/06 12:40:46;;;;;;;8.50;4.25;;;11.90;80.80;;;;;;5013969;28;20518;-79
2023/03/06 12:43:21;;;;;;;7.57;4.17;;;12.00;82.10;;;;;;4994916;28;20107;-80
2023/03/06 12:45:48;;;;;;;7.70;4.37;;;12.10;82.00;;;;;;5014241;28;20357;-78
2023/03/06 12:48:24;;;;;;;8.48;4.45;;;12.10;81.80;;;;;;4960930;28;20037;-80
2023/03/06 12:50:51;;;;;;;8.00;4.70;;;12.30;79.80;;;;;;4996433;28;20553;-80
2023/03/06 12:53:29;;;;;;;7.25;4.10;;;12.30;81.20;;;;;;4995130;28;20265;-80
2023/03/06 12:55:59;;;;;;;7.63;4.43;;;12.40;80.60;;;;;;5015134;28;20510;-80
2023/03/06 12:58:27;;;;;;;8.73;4.50;;;12.50;81.10;;;;;;4998423;28;20302;-79
2023/03/06 13:01:32;;;;;;;7.80;4.40;;;12.60;80.70;;;;;;4995857;28;20522;-80
2023/03/06 13:04:16;;;;;;;7.78;4.43;;;12.80;80.00;;;;;;4967118;28;20029;-81